Time;durP1;ratioP1;P1;durP2;ratioP2;P2;SDS_P1;SDS_P2;PMS_P1;PMS_P2;Temp;Humidity;BMP_temperature;BMP_pressure;BME280_temperature;BME280_humidity;BME280_pressure;Samples;Min_cycle;Max_cycle;Signal;HPM_P1;HPM_P2
2021/01/04 00:00:58;;;;;;;5.38;2.00;;;;;;;1.79;87.76;101842.41;5011539;28;20080;-66
2021/01/04 00:03:47;;;;;;;4.95;1.98;;;;;;;1.81;87.79;101835.28;5012254;28;20069;-66
2021/01/04 00:06:49;;;;;;;3.30;1.88;;;;;;;1.84;87.80;101840.38;5011943;28;20046;-66
2021/01/04 00:09:46;;;;;;;7.35;2.70;;;;;;;1.80;87.25;101838.81;5011275;28;20097;-66
2021/01/04 00:12:20;;;;;;;5.35;2.47;;;;;;;1.81;87.48;101835.28;5011267;28;20041;-66
2021/01/04 00:14:54;;;;;;;6.93;2.00;;;;;;;1.83;87.37;101836.06;5011388;28;20041;-66
2021/01/04 00:17:28;;;;;;;16.58;2.70;;;;;;;1.84;87.39;101829.84;5011062;28;20033;-66
2021/01/04 00:20:00;;;;;;;6.18;2.55;;;;;;;1.85;87.65;101827.16;5011227;28;20073;-66
2021/01/04 00:22:47;;;;;;;5.43;2.15;;;;;;;1.81;87.59;101822.13;5011205;28;20091;-66
2021/01/04 00:25:24;;;;;;;9.68;1.73;;;;;;;1.89;87.46;101819.91;5011077;28;20429;-66
2021/01/04 00:27:58;;;;;;;6.38;2.30;;;;;;;1.89;87.70;101830.47;5010886;28;20038;-66
2021/01/04 00:31:03;;;;;;;7.97;2.13;;;;;;;1.85;87.62;101826.28;5011884;28;20038;-66
2021/01/04 00:33:42;;;;;;;2.55;1.25;;;;;;;1.81;87.61;101827.38;5011913;28;20076;-66
2021/01/04 00:36:19;;;;;;;6.63;1.50;;;;;;;1.76;87.58;101832.03;5011317;28;20053;-66
2021/01/04 00:39:16;;;;;;;5.80;1.50;;;;;;;1.75;87.89;101822.41;5010795;28;20120;-66
2021/01/04 00:42:03;;;;;;;7.47;1.90;;;;;;;1.71;88.04;101821.75;5011897;28;20041;-66
2021/01/04 00:44:52;;;;;;;3.85;1.83;;;;;;;1.71;88.07;101823.50;5010825;28;20037;-66
2021/01/04 00:47:27;;;;;;;4.00;1.85;;;;;;;1.65;88.25;101819.41;5011527;28;20037;-66
2021/01/04 00:50:08;;;;;;;6.80;2.65;;;;;;;1.61;88.41;101818.72;5011700;28;20529;-66
2021/01/04 00:52:48;;;;;;;10.55;3.13;;;;;;;1.66;88.47;101827.25;5010779;28;20554;-66
2021/01/04 00:55:19;;;;;;;3.67;2.03;;;;;;;1.65;88.29;101822.91;5010559;28;20034;-66
2021/01/04 00:58:04;;;;;;;5.45;2.10;;;;;;;1.64;88.27;101815.94;5011327;28;20037;-66
2021/01/04 01:00:38;;;;;;;2.97;1.60;;;;;;;1.65;88.22;101807.09;5010748;28;20415;-66
2021/01/04 01:03:20;;;;;;;5.60;1.85;;;;;;;1.66;87.97;101821.97;5011497;28;20030;-66
2021/01/04 01:06:02;;;;;;;7.25;1.77;;;;;;;1.64;88.08;101830.88;5011067;28;20045;-66
2021/01/04 01:08:36;;;;;;;4.72;1.63;;;;;;;1.64;87.79;101841.41;5011401;28;20091;-66
2021/01/04 01:11:07;;;;;;;3.30;1.80;;;;;;;1.60;87.76;101824.91;5010540;28;20057;-66
2021/01/04 01:13:41;;;;;;;4.38;1.98;;;;;;;1.57;87.43;101826.84;5011454;28;20530;-66
2021/01/04 01:16:39;;;;;;;4.55;2.10;;;;;;;1.55;87.72;101829.56;5010369;28;20037;-66
2021/01/04 01:19:26;;;;;;;3.50;1.60;;;;;;;1.57;87.69;101827.72;5011416;28;20034;-66
2021/01/04 01:21:51;;;;;;;4.38;1.60;;;;;;;1.49;87.46;101845.66;5011492;28;20073;-66
2021/01/04 01:24:17;;;;;;;6.77;2.77;;;;;;;1.54;87.88;101846.28;4994082;28;20057;-66
2021/01/04 01:27:11;;;;;;;12.55;2.42;;;;;;;1.45;88.26;101844.09;5010834;28;20061;-66
2021/01/04 01:29:55;;;;;;;3.55;1.60;;;;;;;1.44;88.02;101842.41;5011337;28;20057;-67
2021/01/04 01:32:32;;;;;;;3.22;1.73;;;;;;;1.44;88.31;101847.69;5010480;28;20042;-66
2021/01/04 01:35:38;;;;;;;2.78;1.73;;;;;;;1.43;88.24;101853.88;5010267;28;20037;-66
2021/01/04 01:38:18;;;;;;;4.05;1.77;;;;;;;1.36;88.25;101855.97;5006259;28;20463;-66
2021/01/04 01:40:53;;;;;;;6.25;1.80;;;;;;;1.40;88.14;101856.63;5010221;28;20053;-66
2021/01/04 01:43:39;;;;;;;4.93;1.90;;;;;;;1.37;88.04;101851.53;5010204;28;20042;-66
2021/01/04 01:46:21;;;;;;;9.70;2.85;;;;;;;1.40;87.90;101867.16;5009949;28;20060;-66
2021/01/04 01:49:13;;;;;;;8.77;2.20;;;;;;;1.39;87.88;101854.94;5012765;28;20476;-66
2021/01/04 01:51:41;;;;;;;4.70;2.17;;;;;;;1.38;88.00;101854.09;5014833;28;20129;-66
2021/01/04 01:54:25;;;;;;;3.50;2.30;;;;;;;1.41;87.80;101859.22;5014914;28;20034;-66
2021/01/04 01:57:29;;;;;;;3.13;1.83;;;;;;;1.34;87.50;101851.69;4997253;28;20121;-66
2021/01/04 02:00:13;;;;;;;2.90;1.35;;;;;;;1.35;87.20;101861.28;5014754;28;20029;-66
2021/01/04 02:02:51;;;;;;;2.40;1.50;;;;;;;1.36;87.43;101863.84;5014737;28;20030;-66
2021/01/04 02:05:53;;;;;;;3.38;1.70;;;;;;;1.34;87.45;101846.44;5013554;28;20042;-66
2021/01/04 02:08:23;;;;;;;4.50;1.80;;;;;;;1.29;87.49;101856.31;5014403;28;20038;-66
2021/01/04 02:10:53;;;;;;;4.13;1.67;;;;;;;1.27;87.55;101845.88;5013654;28;20100;-66
2021/01/04 02:13:31;;;;;;;3.80;1.70;;;;;;;1.30;87.59;101850.13;5014581;28;20045;-66
2021/01/04 02:16:10;;;;;;;5.47;1.42;;;;;;;1.33;87.47;101855.25;5013305;28;20095;-65
2021/01/04 02:19:08;;;;;;;4.80;2.00;;;;;;;1.25;87.52;101845.94;5013400;28;20037;-65
2021/01/04 02:22:13;;;;;;;5.85;2.25;;;;;;;1.23;87.23;101853.06;5013420;28;20486;-66
2021/01/04 02:24:38;;;;;;;1.98;1.38;;;;;;;1.26;87.30;101857.31;5013532;28;20422;-65
2021/01/04 02:27:12;;;;;;;1.67;1.20;;;;;;;1.24;87.51;101852.16;5013887;28;20045;-66
2021/01/04 02:29:37;;;;;;;4.22;2.17;;;;;;;1.16;87.52;101841.13;5014320;28;20145;-66
2021/01/04 02:32:05;;;;;;;6.78;2.38;;;;;;;1.18;87.78;101847.19;5014258;28;20498;-66
2021/01/04 02:34:35;;;;;;;5.30;1.90;;;;;;;1.18;87.48;101836.66;5013257;28;20041;-65
2021/01/04 02:37:01;;;;;;;6.20;2.00;;;;;;;1.18;87.38;101847.19;5012772;28;20038;-65
2021/01/04 02:39:39;;;;;;;;;;;;;;;1.18;87.24;101841.91;5014511;28;20100;-65
2021/01/04 02:42:16;;;;;;;7.10;1.52;;;;;;;1.12;87.26;101849.25;5029459;28;19917;-66
2021/01/04 02:44:42;;;;;;;3.92;2.33;;;;;;;1.14;87.36;101856.13;5013965;28;20080;-66
2021/01/04 02:47:33;;;;;;;;;;;;;;;1.14;87.03;101850.88;5012960;28;20033;-65
2021/01/04 02:50:20;;;;;;;7.05;2.03;;;;;;;1.07;86.88;101849.47;5013746;28;19917;-65
2021/01/04 02:53:06;;;;;;;2.85;1.58;;;;;;;1.07;86.76;101849.47;5013819;28;20061;-65
2021/01/04 02:55:45;;;;;;;2.45;1.58;;;;;;;1.03;86.83;101847.91;5013660;28;20108;-66
2021/01/04 02:58:34;;;;;;;11.15;2.28;;;;;;;1.12;86.42;101858.00;5013354;28;20042;-65
2021/01/04 03:01:09;;;;;;;3.42;1.88;;;;;;;1.08;86.21;101851.19;5012771;28;20124;-65
2021/01/04 03:03:37;;;;;;;2.20;1.38;;;;;;;1.09;86.28;101852.03;4996380;28;20034;-65
2021/01/04 03:06:08;;;;;;;7.18;1.80;;;;;;;1.06;86.40;101853.03;5013194;28;20171;-65
2021/01/04 03:08:33;;;;;;;6.18;2.60;;;;;;;1.07;86.72;101857.38;5013429;28;20096;-65
2021/01/04 03:11:00;;;;;;;2.77;2.23;;;;;;;1.05;86.51;101849.56;5013298;28;20452;-65
2021/01/04 03:13:42;;;;;;;2.25;1.45;;;;;;;1.03;86.46;101853.16;5012477;28;20044;-65
2021/01/04 03:16:42;;;;;;;3.72;1.55;;;;;;;1.05;86.47;101857.47;5013199;28;20361;-65
2021/01/04 03:19:12;;;;;;;3.55;2.13;;;;;;;1.01;86.40;101849.78;5012277;28;20077;-65
2021/01/04 03:21:41;;;;;;;10.20;2.67;;;;;;;1.03;85.76;101853.16;5013461;28;20113;-65
2021/01/04 03:24:15;;;;;;;4.63;1.92;;;;;;;0.98;86.16;101853.41;5013177;28;20045;-65
2021/01/04 03:26:46;;;;;;;3.20;1.58;;;;;;;1.00;86.22;101855.97;5012848;28;20122;-65
2021/01/04 03:29:11;;;;;;;8.68;1.70;;;;;;;1.10;85.82;101859.88;5012282;28;20054;-65
2021/01/04 03:31:37;;;;;;;7.87;1.67;;;;;;;1.08;85.48;101847.69;5013024;28;20042;-65
2021/01/04 03:34:02;;;;;;;3.87;1.40;;;;;;;1.05;85.44;101840.81;5013015;28;20042;-65
2021/01/04 03:36:28;;;;;;;7.00;2.67;;;;;;;1.04;85.36;101861.00;5012712;28;20088;-65
2021/01/04 03:38:53;;;;;;;3.30;2.10;;;;;;;1.05;85.29;101851.31;5013001;28;20041;-65
2021/01/04 03:41:18;;;;;;;2.50;1.40;;;;;;;1.09;85.00;101862.56;5011659;28;20517;-65
2021/01/04 03:43:44;;;;;;;4.05;1.60;;;;;;;1.09;84.70;101850.25;5011196;28;20418;-65
2021/01/04 03:46:09;;;;;;;5.13;1.80;;;;;;;1.06;84.82;101853.03;5009863;28;20129;-65
2021/01/04 03:48:37;;;;;;;6.00;1.93;;;;;;;1.02;84.67;101843.59;5010945;28;20038;-65
2021/01/04 03:51:03;;;;;;;2.72;1.42;;;;;;;1.05;84.77;101852.19;5011046;28;20091;-65
2021/01/04 03:53:28;;;;;;;4.80;1.60;;;;;;;1.03;84.76;101856.69;5010096;28;20419;-65
2021/01/04 03:55:53;;;;;;;2.93;1.40;;;;;;;1.06;84.60;101847.78;5009881;28;20141;-65
2021/01/04 03:58:19;;;;;;;2.13;1.63;;;;;;;1.05;84.14;101860.09;5012137;28;20045;-65
2021/01/04 04:00:44;;;;;;;8.97;1.40;;;;;;;1.00;84.33;101855.97;5011618;28;20038;-65
2021/01/04 04:03:09;;;;;;;4.33;1.43;;;;;;;0.97;84.71;101866.63;5011618;28;20041;-65
2021/01/04 04:05:35;;;;;;;4.57;1.70;;;;;;;0.95;84.76;101855.34;5012131;28;20041;-65
2021/01/04 04:08:02;;;;;;;2.47;1.50;;;;;;;0.95;84.77;101848.28;5012396;28;20042;-65
2021/01/04 04:10:28;;;;;;;4.63;1.50;;;;;;;0.96;84.81;101846.50;5010752;28;20034;-65
2021/01/04 04:12:53;;;;;;;29.33;2.60;;;;;;;0.92;85.18;101835.28;5011289;28;20458;-65
2021/01/04 04:15:19;;;;;;;6.17;1.67;;;;;;;0.89;84.94;101847.72;5012245;28;20487;-65
2021/01/04 04:17:45;;;;;;;;;;;;;;;0.90;84.16;101845.03;5012333;28;20037;-65
2021/01/04 04:20:14;;;;;;;2.90;1.58;;;;;;;0.93;84.39;101858.03;5012145;28;19917;-65
2021/01/04 04:22:39;;;;;;;6.95;2.40;;;;;;;0.89;84.66;101848.59;5012128;28;20452;-65
2021/01/04 04:25:06;;;;;;;2.60;1.40;;;;;;;0.92;84.32;101845.81;5010809;28;20036;-65
2021/01/04 04:27:33;;;;;;;4.63;1.60;;;;;;;0.91;84.29;101848.50;5010878;28;20046;-65
2021/01/04 04:29:59;;;;;;;5.53;1.50;;;;;;;0.96;84.40;101857.03;5012014;28;20042;-65
2021/01/04 04:32:24;;;;;;;3.97;2.22;;;;;;;0.94;84.46;101851.00;5011044;28;20037;-65
2021/01/04 04:34:49;;;;;;;3.65;1.50;;;;;;;0.94;84.19;101858.91;4994576;28;20056;-65
2021/01/04 04:37:15;;;;;;;10.23;2.43;;;;;;;0.93;84.18;101837.00;5011525;28;20048;-65
2021/01/04 04:39:40;;;;;;;4.68;1.73;;;;;;;0.93;84.27;101846.66;5010851;28;20041;-65
2021/01/04 04:42:12;;;;;;;3.10;1.70;;;;;;;0.96;84.15;101851.75;5010873;28;20049;-65
2021/01/04 04:44:57;;;;;;;4.47;1.30;;;;;;;0.97;83.75;101849.06;5011672;28;20037;-65
2021/01/04 04:48:01;;;;;;;1.92;1.20;;;;;;;0.95;83.92;101842.19;5010724;28;20045;-65
2021/01/04 04:50:51;;;;;;;4.15;1.17;;;;;;;0.98;84.27;101855.16;5011720;28;20050;-65
2021/01/04 04:53:19;;;;;;;6.93;1.35;;;;;;;1.00;83.83;101853.31;5011811;28;20072;-65
2021/01/04 04:56:21;;;;;;;3.75;1.10;;;;;;;0.96;84.02;101852.63;5011437;28;20120;-65
2021/01/04 04:58:55;;;;;;;6.93;1.20;;;;;;;0.97;83.84;101859.59;5010631;28;20368;-65
2021/01/04 05:01:43;;;;;;;3.25;1.17;;;;;;;0.97;83.46;101862.22;5011494;28;20535;-65
2021/01/04 05:04:20;;;;;;;3.50;1.40;;;;;;;0.94;83.67;101853.63;5010711;28;20037;-65
2021/01/04 05:06:46;;;;;;;4.32;1.40;;;;;;;0.91;83.50;101862.50;5011226;28;20463;-65
2021/01/04 05:09:20;;;;;;;3.63;1.52;;;;;;;0.89;83.47;101864.38;5011572;28;20472;-65
2021/01/04 05:12:00;;;;;;;3.50;1.50;;;;;;;0.89;83.70;101856.50;5011448;28;20136;-65
2021/01/04 05:14:27;;;;;;;4.88;1.40;;;;;;;0.88;83.92;101853.91;5011522;28;20129;-65
2021/01/04 05:17:30;;;;;;;3.38;1.20;;;;;;;0.86;83.74;101855.75;5010205;28;20460;-65
2021/01/04 05:20:01;;;;;;;2.22;1.13;;;;;;;0.85;83.96;101860.19;5011391;28;20490;-65
2021/01/04 05:23:11;;;;;;;1.75;1.00;;;;;;;0.80;83.50;101863.03;5013665;28;20060;-65
2021/01/04 05:26:00;;;;;;;9.45;1.20;;;;;;;0.82;83.29;101866.44;5015125;28;20030;-65
2021/01/04 05:28:50;;;;;;;6.00;1.42;;;;;;;0.80;83.07;101863.03;5014207;28;20045;-65
2021/01/04 05:31:44;;;;;;;2.20;1.33;;;;;;;0.76;82.82;101860.63;5015067;28;20085;-65
2021/01/04 05:34:20;;;;;;;4.40;1.20;;;;;;;0.71;83.07;101854.72;5015325;28;20034;-65
2021/01/04 05:36:49;;;;;;;3.65;1.27;;;;;;;0.70;83.33;101859.09;4997347;28;20378;-65
2021/01/04 05:39:20;;;;;;;2.70;1.25;;;;;;;0.69;83.42;101862.66;5015248;28;20041;-65
2021/01/04 05:42:05;;;;;;;5.75;1.55;;;;;;;0.77;83.39;101857.03;5015068;28;20108;-65
2021/01/04 05:45:03;;;;;;;4.00;1.25;;;;;;;0.78;84.03;101859.63;5014276;28;20034;-65
2021/01/04 05:47:36;;;;;;;3.13;1.25;;;;;;;0.75;83.80;101866.78;5014033;28;20123;-65
2021/01/04 05:50:13;;;;;;;4.25;1.30;;;;;;;0.75;83.57;101865.03;5014046;28;20088;-65
2021/01/04 05:52:39;;;;;;;5.35;1.48;;;;;;;0.75;83.59;101857.13;5014038;28;20061;-65
2021/01/04 05:55:05;;;;;;;5.83;1.77;;;;;;;0.76;83.93;101860.63;5014003;28;20514;-65
2021/01/04 05:57:30;;;;;;;3.75;1.30;;;;;;;0.74;84.01;101870.34;5014462;28;20299;-65
2021/01/04 05:59:57;;;;;;;9.47;1.90;;;;;;;0.79;83.63;101868.34;5014815;28;20061;-65
2021/01/04 06:02:28;;;;;;;6.10;1.50;;;;;;;0.76;83.35;101861.44;5014575;28;20459;-65
2021/01/04 06:05:12;;;;;;;6.28;1.27;;;;;;;0.74;83.57;101868.56;5013760;28;20037;-65
2021/01/04 06:07:39;;;;;;;1.67;1.20;;;;;;;0.74;83.46;101872.97;5014438;28;20034;-65
2021/01/04 06:10:09;;;;;;;2.92;1.58;;;;;;;0.74;83.60;101873.81;5013699;28;20049;-65
2021/01/04 06:12:38;;;;;;;4.20;1.63;;;;;;;0.74;83.43;101873.81;5014546;28;20061;-65
2021/01/04 06:15:05;;;;;;;5.53;1.85;;;;;;;0.73;83.30;101874.75;5014560;28;20033;-65
2021/01/04 06:17:37;;;;;;;3.38;1.20;;;;;;;0.70;83.52;101876.66;5014249;28;20103;-65
2021/01/04 06:20:47;;;;;;;4.10;1.40;;;;;;;0.68;83.41;101863.59;5013529;28;20466;-65
2021/01/04 06:23:28;;;;;;;3.72;1.50;;;;;;;0.76;82.94;101865.88;5013299;28;20065;-65
2021/01/04 06:25:55;;;;;;;2.55;1.40;;;;;;;0.74;82.80;101868.56;5013049;28;20459;-65
2021/01/04 06:28:20;;;;;;;4.60;1.30;;;;;;;0.73;83.05;101868.66;5014078;28;20081;-65
2021/01/04 06:30:59;;;;;;;1.65;1.20;;;;;;;0.68;82.98;101873.25;5013172;28;20162;-65
2021/01/04 06:33:28;;;;;;;6.50;1.25;;;;;;;0.65;83.30;101874.25;5012625;28;20041;-65
2021/01/04 06:36:07;;;;;;;1.65;1.10;;;;;;;0.68;83.25;101868.88;5013919;28;20022;-65
2021/01/04 06:38:36;;;;;;;2.97;1.38;;;;;;;0.70;83.20;101867.00;5013022;28;20038;-65
2021/01/04 06:41:15;;;;;;;7.07;1.65;;;;;;;0.68;83.23;101874.13;5013177;28;20057;-65
2021/01/04 06:43:41;;;;;;;2.50;1.40;;;;;;;0.71;83.43;101868.72;5013124;28;20037;-65
2021/01/04 06:46:41;;;;;;;4.78;1.10;;;;;;;0.70;83.38;101877.50;5012801;28;20483;-65
2021/01/04 06:49:25;;;;;;;4.60;1.60;;;;;;;0.70;83.43;101872.25;5012807;28;20132;-65
2021/01/04 06:52:08;;;;;;;2.25;1.23;;;;;;;0.69;83.16;101875.81;5012911;28;20042;-65
2021/01/04 06:54:50;;;;;;;2.78;1.30;;;;;;;0.69;83.14;101870.56;5013791;28;20042;-65
2021/01/04 06:57:33;;;;;;;3.22;1.20;;;;;;;0.72;83.18;101880.91;5012662;28;20042;-65
2021/01/04 07:00:18;;;;;;;3.38;1.27;;;;;;;0.70;83.07;101882.75;5013537;28;20034;-65
2021/01/04 07:03:13;;;;;;;3.17;1.65;;;;;;;0.73;83.08;101887.91;5013612;28;20368;-65
2021/01/04 07:05:54;;;;;;;2.35;1.40;;;;;;;0.73;83.17;101884.41;5012313;28;20129;-65
2021/01/04 07:08:57;;;;;;;3.42;1.17;;;;;;;0.73;83.15;101879.16;5013436;28;20069;-65
2021/01/04 07:11:39;;;;;;;3.65;1.35;;;;;;;0.70;83.18;101882.75;5012697;28;20129;-65
2021/01/04 07:14:12;;;;;;;3.92;1.35;;;;;;;0.68;83.40;101879.38;5013424;28;20106;-65
2021/01/04 07:16:56;;;;;;;4.60;1.65;;;;;;;0.69;83.80;101886.31;5013111;28;20109;-65
2021/01/04 07:19:43;;;;;;;3.42;1.42;;;;;;;0.73;83.41;101881.78;5012355;28;20053;-65
2021/01/04 07:22:27;;;;;;;6.82;2.03;;;;;;;0.74;83.68;101880.84;5013341;28;20046;-65
2021/01/04 07:25:07;;;;;;;3.28;1.50;;;;;;;0.68;83.71;101889.91;5013186;28;20129;-65
2021/01/04 07:28:06;;;;;;;6.43;1.50;;;;;;;0.73;83.65;101889.69;5011940;28;20042;-65
2021/01/04 07:30:57;;;;;;;2.53;1.50;;;;;;;0.72;83.66;101895.84;5012927;28;20372;-65
2021/01/04 07:33:33;;;;;;;6.38;1.90;;;;;;;0.70;83.71;101888.03;5012942;28;20103;-65
2021/01/04 07:36:04;;;;;;;5.03;1.67;;;;;;;1.98;88.91;101885.28;5011924;28;20076;-65
2021/01/04 07:39:17;;;;;;;7.82;1.45;;;;;;;1.26;82.47;101897.66;5011824;28;20136;-65
2021/01/04 07:41:58;;;;;;;2.83;1.40;;;;;;;1.06;82.77;101895.13;5012345;28;20054;-65
2021/01/04 07:44:35;;;;;;;7.68;1.52;;;;;;;0.83;82.66;101894.41;5012607;28;20048;-65
2021/01/04 07:47:19;;;;;;;4.55;1.60;;;;;;;0.80;83.37;101902.47;5011694;28;20375;-65
2021/01/04 07:50:11;;;;;;;2.33;1.25;;;;;;;0.76;83.70;101897.41;5012572;28;20041;-65
2021/01/04 07:53:07;;;;;;;4.40;1.83;;;;;;;0.75;83.82;101896.56;5012872;28;20474;-65
2021/01/04 07:55:51;;;;;;;6.20;1.65;;;;;;;0.72;83.85;101896.69;5012525;28;20367;-65
2021/01/04 07:58:54;;;;;;;3.65;2.08;;;;;;;0.75;83.81;101901.81;5011638;28;20041;-65
2021/01/04 08:01:52;;;;;;;3.65;1.38;;;;;;;0.73;83.78;101893.16;5011773;28;20041;-65
2021/01/04 08:04:44;;;;;;;4.75;1.65;;;;;;;0.74;83.93;101886.97;5012470;28;20037;-65
2021/01/04 08:07:23;;;;;;;2.65;1.42;;;;;;;0.75;84.08;101891.31;5011130;28;20427;-65
2021/01/04 08:10:08;;;;;;;5.45;2.10;;;;;;;0.78;84.05;101895.56;5011551;28;20042;-65
2021/01/04 08:12:52;;;;;;;4.28;1.83;;;;;;;0.76;84.41;101903.53;5011554;28;20052;-65
2021/01/04 08:15:37;;;;;;;5.05;2.20;;;;;;;0.75;84.34;101896.56;5012280;28;20045;-65
2021/01/04 08:18:15;;;;;;;5.32;1.40;;;;;;;0.74;84.46;101897.47;5011231;28;20046;-65
2021/01/04 08:20:52;;;;;;;10.98;1.92;;;;;;;0.78;84.22;101899.03;5012383;28;20149;-65
2021/01/04 08:23:45;;;;;;;2.67;1.70;;;;;;;0.78;84.47;101899.03;5011333;28;20360;-65
2021/01/04 08:26:42;;;;;;;4.25;2.20;;;;;;;0.69;84.98;101923.13;5010825;28;20132;-65
2021/01/04 08:29:32;;;;;;;4.88;1.95;;;;;;;0.75;84.77;101906.22;5011686;28;20060;-65
2021/01/04 08:32:25;;;;;;;6.15;2.10;;;;;;;0.76;84.54;101900.88;5001215;28;20382;-65
2021/01/04 08:34:51;;;;;;;4.20;2.05;;;;;;;0.73;84.30;101898.41;5012052;28;20044;-70
2021/01/04 08:37:33;;;;;;;2.03;1.08;;;;;;;0.74;84.58;101901.88;5012230;28;20360;-70
2021/01/04 08:40:19;;;;;;;4.32;1.58;;;;;;;0.75;84.49;101899.19;5011878;28;20069;-70
2021/01/04 08:42:45;;;;;;;4.32;1.85;;;;;;;0.80;84.30;101897.19;5010993;28;20099;-70
2021/01/04 08:45:14;;;;;;;4.03;1.55;;;;;;;0.84;84.27;101904.03;4994551;28;20365;-71
2021/01/04 08:47:52;;;;;;;4.50;1.25;;;;;;;0.89;84.38;101909.06;5011549;28;20050;-70
2021/01/04 08:50:23;;;;;;;6.53;1.45;;;;;;;1.47;87.49;101908.03;5011792;28;20049;-70
2021/01/04 08:52:55;;;;;;;4.82;2.25;;;;;;;1.44;82.83;101889.78;5011603;28;20045;-70
2021/01/04 08:55:30;;;;;;;6.30;1.48;;;;;;;1.19;82.95;101903.28;5011650;28;20128;-70
2021/01/04 08:58:00;;;;;;;2.75;1.63;;;;;;;1.04;83.86;101903.06;5011195;28;20046;-70
2021/01/04 09:00:28;;;;;;;2.47;1.27;;;;;;;0.97;84.07;101898.19;5011739;28;20041;-70
2021/01/04 09:02:55;;;;;;;6.40;1.45;;;;;;;0.90;84.30;101899.41;5011422;28;20045;-70
2021/01/04 09:05:34;;;;;;;6.50;1.27;;;;;;;0.91;84.30;101896.69;5011343;28;20069;-71
2021/01/04 09:08:03;;;;;;;2.50;1.33;;;;;;;0.88;84.63;101903.88;5010422;28;20060;-70
2021/01/04 09:10:41;;;;;;;3.33;1.52;;;;;;;0.92;84.64;101902.81;5010504;28;20045;-70
2021/01/04 09:13:09;;;;;;;17.33;2.40;;;;;;;0.91;84.49;101906.34;5011118;28;20398;-70
2021/01/04 09:15:36;;;;;;;5.03;1.30;;;;;;;0.89;84.71;101902.94;5009382;28;20033;-71
2021/01/04 09:18:01;;;;;;;2.03;1.10;;;;;;;0.90;84.40;101899.41;5010790;28;20428;-71
2021/01/04 09:20:46;;;;;;;4.70;1.27;;;;;;;0.87;84.49;101910.03;5010000;28;20113;-71
2021/01/04 09:23:20;;;;;;;3.80;1.10;;;;;;;0.87;84.71;101918.81;5010262;28;20345;-70
2021/01/04 09:26:01;;;;;;;3.92;1.08;;;;;;;0.91;84.74;101916.88;5010405;28;20041;-70
2021/01/04 09:28:31;;;;;;;3.30;1.33;;;;;;;0.82;84.89;101911.13;5011175;28;20048;-70
2021/01/04 09:30:56;;;;;;;4.90;1.52;;;;;;;0.77;85.25;101913.13;5011171;28;20476;-71
2021/01/04 09:33:22;;;;;;;3.67;1.50;;;;;;;0.79;85.59;101911.25;5011353;28;20081;-71
2021/01/04 09:35:49;;;;;;;4.22;1.73;;;;;;;0.79;85.66;101919.13;5009788;28;20029;-71
2021/01/04 09:38:24;;;;;;;5.63;2.55;;;;;;;0.83;85.47;101915.44;5011138;28;20052;-71
2021/01/04 09:40:58;;;;;;;4.97;1.90;;;;;;;0.80;85.48;101912.13;5009567;28;20050;-71
2021/01/04 09:43:30;;;;;;;5.15;1.35;;;;;;;0.77;85.37;101913.13;5009863;28;20118;-71
2021/01/04 09:46:17;;;;;;;3.40;1.48;;;;;;;0.77;85.82;101902.63;5010852;28;20050;-71
2021/01/04 09:48:52;;;;;;;15.00;5.22;;;;;;;0.79;85.35;101903.38;5010046;28;20080;-71
2021/01/04 09:51:44;;;;;;;6.97;2.72;;;;;;;0.84;85.19;101906.66;5009881;28;20038;-71
2021/01/04 09:54:17;;;;;;;5.03;1.77;;;;;;;0.86;84.92;101908.34;5009781;28;20040;-71
2021/01/04 09:56:42;;;;;;;4.72;1.30;;;;;;;0.85;85.26;101904.88;5007889;28;20061;-71
2021/01/04 09:59:30;;;;;;;3.85;1.10;;;;;;;0.84;85.05;101898.78;5009334;28;20072;-71
2021/01/04 10:02:00;;;;;;;4.15;1.20;;;;;;;0.82;85.21;101905.88;5009035;28;20049;-70
2021/01/04 10:04:35;;;;;;;3.83;1.73;;;;;;;0.83;85.46;101899.69;5009049;28;20052;-71
2021/01/04 10:07:04;;;;;;;2.90;1.30;;;;;;;0.79;85.82;101899.88;5009024;28;20053;-71
2021/01/04 10:09:34;;;;;;;1.95;1.20;;;;;;;0.79;85.52;101903.38;5012143;28;20519;-71
2021/01/04 10:12:03;;;;;;;8.52;1.80;;;;;;;0.76;85.83;101903.53;5013514;28;20440;-71
2021/01/04 10:14:29;;;;;;;2.13;1.30;;;;;;;0.77;85.81;101905.25;5014286;28;20042;-71
2021/01/04 10:16:56;;;;;;;3.08;1.50;;;;;;;0.80;85.88;101899.84;5013923;28;20037;-71
2021/01/04 10:19:28;;;;;;;3.78;2.60;;;;;;;0.85;85.76;101904.88;5013673;28;20041;-71
2021/01/04 10:22:20;;;;;;;2.22;1.38;;;;;;;0.82;85.65;101903.25;5014378;28;20371;-71
2021/01/04 10:24:45;;;;;;;2.03;1.20;;;;;;;0.79;85.38;101903.38;5013453;28;20111;-70
2021/01/04 10:27:15;;;;;;;3.57;1.60;;;;;;;0.81;85.22;101896.25;5013732;28;20128;-71
2021/01/04 10:29:42;;;;;;;3.38;2.10;;;;;;;0.86;85.13;101903.09;5014532;28;20037;-71
2021/01/04 10:32:30;;;;;;;3.95;2.22;;;;;;;0.92;84.85;101903.66;5013962;28;20387;-71
2021/01/04 10:34:56;;;;;;;2.15;1.20;;;;;;;0.88;84.46;101901.25;5014226;28;20034;-71
2021/01/04 10:37:32;;;;;;;3.60;1.50;;;;;;;0.89;84.39;101898.56;5013693;28;20117;-70
2021/01/04 10:40:06;;;;;;;4.00;1.50;;;;;;;0.91;84.38;101901.94;4996907;28;20037;-70
2021/01/04 10:42:32;;;;;;;2.10;1.20;;;;;;;0.92;84.32;101893.16;5013265;28;20049;-71
2021/01/04 10:45:06;;;;;;;5.50;1.65;;;;;;;0.98;84.13;101892.88;5012935;28;20042;-71
2021/01/04 10:48:01;;;;;;;4.78;1.77;;;;;;;1.03;84.13;101890.00;4995803;28;20103;-71
2021/01/04 10:50:39;;;;;;;1.63;1.08;;;;;;;1.03;83.75;101893.50;5013693;28;20278;-71
2021/01/04 10:53:09;;;;;;;5.10;2.30;;;;;;;1.06;84.03;101887.22;5012986;28;20459;-70
2021/01/04 10:55:47;;;;;;;5.72;1.75;;;;;;;1.11;83.84;101885.22;5012197;28;20448;-71
2021/01/04 10:58:21;;;;;;;6.82;1.85;;;;;;;1.08;83.07;101893.28;4995838;28;20049;-71
2021/01/04 11:00:52;;;;;;;2.40;0.98;;;;;;;1.14;83.00;101885.06;5012846;28;20034;-71
2021/01/04 11:03:17;;;;;;;4.05;1.73;;;;;;;1.14;82.65;101879.81;5013688;28;20030;-71
2021/01/04 11:05:48;;;;;;;5.50;2.57;;;;;;;1.13;82.29;101877.28;5012263;28;20483;-71
2021/01/04 11:08:34;;;;;;;2.35;1.25;;;;;;;1.17;82.32;101882.31;5013448;28;20048;-71
2021/01/04 11:11:20;;;;;;;5.97;1.42;;;;;;;1.17;81.98;101881.44;5013209;28;20492;-71
2021/01/04 11:13:45;;;;;;;;;;;;;;;1.18;81.90;101870.84;5013806;28;20443;-71
2021/01/04 11:16:16;;;;;;;5.05;1.30;;;;;;;1.19;82.05;101875.19;5012236;28;19971;-70
2021/01/04 11:18:55;;;;;;;1.92;1.00;;;;;;;1.18;82.06;101870.84;5013312;28;20064;-71
2021/01/04 11:21:40;;;;;;;2.75;1.75;;;;;;;1.10;81.19;101869.50;5012224;28;20052;-71
2021/01/04 11:24:07;;;;;;;3.05;0.85;;;;;;;1.09;81.72;101879.19;5012188;28;20452;-71
2021/01/04 11:26:32;;;;;;;;;;;;;;;1.04;81.75;101873.31;5013185;28;20030;-70
2021/01/04 11:28:57;;;;;;;3.22;1.08;;;;;;;1.11;81.78;101869.44;5012120;28;20394;-71
2021/01/04 11:31:23;;;;;;;1.97;1.40;;;;;;;1.09;81.12;101863.41;5013090;28;20126;-70
2021/01/04 11:33:48;;;;;;;4.05;1.13;;;;;;;1.08;80.90;101852.94;5013071;28;20038;-70
2021/01/04 11:36:14;;;;;;;1.05;0.75;;;;;;;1.15;80.98;101857.88;5011817;28;20371;-71
2021/01/04 11:38:39;;;;;;;1.73;0.90;;;;;;;1.16;80.68;101856.06;5013072;28;20434;-71
2021/01/04 11:41:04;;;;;;;2.17;1.20;;;;;;;1.19;80.49;101858.53;5013379;28;20045;-71
2021/01/04 11:43:30;;;;;;;2.00;1.40;;;;;;;1.33;80.65;101852.63;5011865;28;20383;-71
2021/01/04 11:45:55;;;;;;;1.47;1.10;;;;;;;1.32;80.49;101850.91;5012529;28;20375;-71
2021/01/04 11:48:21;;;;;;;5.80;2.17;;;;;;;1.30;79.95;101845.72;5011848;28;20367;-71
2021/01/04 11:50:48;;;;;;;4.60;1.20;;;;;;;1.26;80.17;101844.16;5012578;28;20103;-71
2021/01/04 11:53:13;;;;;;;2.13;1.10;;;;;;;1.24;80.06;101852.16;5011672;28;20041;-71
2021/01/04 11:55:38;;;;;;;2.37;1.20;;;;;;;1.25;80.13;101842.47;5011351;28;20360;-71
2021/01/04 11:58:04;;;;;;;3.10;1.10;;;;;;;1.17;80.07;101848.13;5012343;28;20053;-71
2021/01/04 12:00:29;;;;;;;3.47;1.13;;;;;;;1.18;79.93;101851.59;5012580;28;20855;-71
2021/01/04 12:02:55;;;;;;;3.20;1.23;;;;;;;1.17;79.91;101828.81;5012638;28;20033;-71
2021/01/04 12:05:20;;;;;;;1.45;0.85;;;;;;;1.14;80.13;101835.09;5011319;28;20284;-71
2021/01/04 12:07:46;;;;;;;4.93;1.63;;;;;;;1.15;80.55;101825.44;5012190;28;20043;-71
2021/01/04 12:10:13;;;;;;;7.22;1.05;;;;;;;1.16;80.43;101821.88;5011381;28;20288;-71
2021/01/04 12:12:38;;;;;;;1.02;0.82;;;;;;;1.12;80.58;101820.31;4994716;28;20038;-71
2021/01/04 12:15:06;;;;;;;3.90;1.23;;;;;;;1.10;80.37;101820.41;5011426;28;20068;-71
2021/01/04 12:17:31;;;;;;;3.38;1.70;;;;;;;1.10;80.96;101820.41;5010882;28;20081;-71